Terminal Aerodrome Forecast
Issued by NWS Twin Cities, MN

Home | Current Version | Previous Version | Graphics & Text | Print | Product List | Glossary On
Versions: 1 2 3 4 5 6 7 8 9 10 11 12 13 14 15 16 17
000
FTUS43 KMPX 181120
TAFEAU
TAF
KEAU 181120Z 1812/1912 27004KT 6SM BR SKC
     FM181300 29005KT P6SM BKN150
     FM181800 29007KT P6SM SCT050 BKN100
     FM190100 31003KT P6SM SCT050 BKN200
     FM190900 27003KT 2SM BR SCT002=

USA.gov is the U.S. government's official web portal to all federal, state and local government web resources and services.